Time;durP1;ratioP1;P1;durP2;ratioP2;P2;SDS_P1;SDS_P2;PMS_P1;PMS_P2;Temp;Humidity;BMP_temperature;BMP_pressure;BME280_temperature;BME280_humidity;BME280_pressure;Samples;Min_cycle;Max_cycle;Signal;HPM_P1;HPM_P2
2021/08/31 00:00:26;;;;;;;;;;;;;;;;;;4957034;28;20565;-86
2021/08/31 00:02:54;;;;;;;;;;;;;;;;;;4968607;28;20390;-88
2021/08/31 00:05:23;;;;;;;;;;;;;;;;;;4952700;28;19930;-87
2021/08/31 00:07:52;;;;;;;;;;;;;;;;;;4949548;28;20008;-89
2021/08/31 00:10:20;;;;;;;;;;;;;;;;;;4963846;28;20433;-88
2021/08/31 00:12:49;;;;;;;;;;;;;;;;;;4957475;28;20413;-87
2021/08/31 00:15:17;;;;;;;;;;;;;;;;;;4950155;28;19930;-87
2021/08/31 00:17:45;;;;;;;;;;;;;;;;;;4955282;28;20393;-88
2021/08/31 00:20:13;;;;;;;;;;;;;;;;;;4950224;28;19926;-88
2021/08/31 00:22:41;;;;;;;;;;;;;;;;;;4952694;28;19925;-89
2021/08/31 00:25:11;;;;;;;;;;;;;;;;;;4965104;28;20334;-86
2021/08/31 00:27:39;;;;;;;;;;;;;;;;;;4954466;28;19936;-88
2021/08/31 00:30:08;;;;;;;;;;;;;;;;;;4962988;28;19926;-90
2021/08/31 00:32:36;;;;;;;;;;;;;;;;;;4982336;28;19941;-89
2021/08/31 00:35:04;;;;;;;;;;;;;;;;;;4955256;28;19933;-88
2021/08/31 00:37:34;;;;;;;;;;;;;;;;;;4947502;28;19942;-89
2021/08/31 00:40:02;;;;;;;;;;;;;;;;;;4971095;28;19930;-88
2021/08/31 00:42:31;;;;;;;;;;;;;;;;;;4956736;28;19941;-89
2021/08/31 00:44:59;;;;;;;;;;;;;;;;;;4965416;28;19930;-89
2021/08/31 00:47:28;;;;;;;;;;;;;;;;;;4947035;28;19933;-90
2021/08/31 00:49:56;;;;;;;;;;;;;;;;;;4985758;28;19933;-89
2021/08/31 00:52:24;;;;;;;;;;;;;;;;;;4951572;28;20299;-88
2021/08/31 00:54:52;;;;;;;;;;;;;;;;;;4952548;28;19926;-89
2021/08/31 00:57:21;;;;;;;;;;;;;;;;;;4963438;28;20364;-87
2021/08/31 00:59:51;;;;;;;;;;;;;;;;;;4951450;28;19933;-89
2021/08/31 01:02:19;;;;;;;;;;;;;;;;;;4962648;28;19927;-90
2021/08/31 01:04:47;;;;;;;;;;;;;;;;;;4963908;28;19941;-88
2021/08/31 01:07:15;;;;;;;;;;;;;;;;;;4947171;28;20291;-88
2021/08/31 01:09:44;;;;;;;;;;;;;;;;;;4950882;28;19926;-89
2021/08/31 01:12:13;;;;;;;;;;;;;;;;;;4960960;28;19926;-89
2021/08/31 01:14:41;;;;;;;;;;;;;;;;;;4951082;28;19929;-88
2021/08/31 01:17:10;;;;;;;;;;;;;;;;;;4954177;28;19948;-89
2021/08/31 01:19:39;;;;;;;;;;;;;;;;;;4954340;28;19925;-88
2021/08/31 01:22:08;;;;;;;;;;;;;;;;;;4946805;28;20398;-87
2021/08/31 01:24:38;;;;;;;;;;;;;;;;;;4950123;28;19926;-88
2021/08/31 01:27:07;;;;;;;;;;;;;;;;;;4945317;28;20390;-85
2021/08/31 01:29:35;;;;;;;;;;;;;;;;;;4945988;28;19927;-89
2021/08/31 01:32:04;;;;;;;;;;;;;;;;;;4950885;28;19932;-89
2021/08/31 01:34:32;;;;;;;;;;;;;;;;;;4948704;28;19937;-87
2021/08/31 01:37:00;;;;;;;;;;;;;;;;;;4949934;28;20014;-88
2021/08/31 01:39:28;;;;;;;;;;;;;;;;;;4951270;28;19933;-87
2021/08/31 01:41:57;;;;;;;;;;;;;;;;;;4961188;28;20306;-89
2021/08/31 01:44:27;;;;;;;;;;;;;;;;;;4944775;28;19934;-89
2021/08/31 01:46:55;;;;;;;;;;;;;;;;;;4946579;28;19926;-88
2021/08/31 01:49:23;;;;;;;;;;;;;;;;;;4948495;28;20317;-90
2021/08/31 01:51:51;;;;;;;;;;;;;;;;;;4958614;28;20020;-90
2021/08/31 01:54:19;;;;;;;;;;;;;;;;;;4940217;28;19933;-89
2021/08/31 01:56:48;;;;;;;;;;;;;;;;;;4962111;28;19926;-90
2021/08/31 01:59:16;;;;;;;;;;;;;;;;;;4945516;28;19941;-88
2021/08/31 02:01:45;;;;;;;;;;;;;;;;;;4945940;28;19953;-90
2021/08/31 02:04:14;;;;;;;;;;;;;;;;;;4944665;28;19926;-90
2021/08/31 02:06:42;;;;;;;;;;;;;;;;;;4972513;28;19930;-89
2021/08/31 02:09:10;;;;;;;;;;;;;;;;;;4952117;28;19939;-89
2021/08/31 02:11:38;;;;;;;;;;;;;;;;;;4951981;28;20306;-89
2021/08/31 02:14:06;;;;;;;;;;;;;;;;;;4945258;28;19926;-89
2021/08/31 02:16:35;;;;;;;;;;;;;;;;;;4956998;28;19926;-90
2021/08/31 02:19:05;;;;;;;;;;;;;;;;;;4948564;28;19927;-90
2021/08/31 02:21:33;;;;;;;;;;;;;;;;;;4952840;28;19929;-88
2021/08/31 02:24:01;;;;;;;;;;;;;;;;;;4948010;28;19925;-88
2021/08/31 02:26:31;;;;;;;;;;;;;;;;;;4948324;28;19933;-89
2021/08/31 02:28:59;;;;;;;;;;;;;;;;;;4958265;28;19926;-88
2021/08/31 02:31:27;;;;;;;;;;;;;;;;;;4953037;28;19941;-87
2021/08/31 02:33:55;;;;;;;;;;;;;;;;;;4951633;28;19932;-87
2021/08/31 02:36:25;;;;;;;;;;;;;;;;;;4950621;28;19936;-88
2021/08/31 02:38:53;;;;;;;;;;;;;;;;;;4967236;28;19930;-90
2021/08/31 02:41:21;;;;;;;;;;;;;;;;;;4952052;28;20297;-90
2021/08/31 02:43:49;;;;;;;;;;;;;;;;;;4954701;28;20309;-88
2021/08/31 02:46:17;;;;;;;;;;;;;;;;;;4953983;28;19941;-87
2021/08/31 02:48:45;;;;;;;;;;;;;;;;;;4957351;28;19949;-88
2021/08/31 02:51:13;;;;;;;;;;;;;;;;;;4954052;28;19930;-88
2021/08/31 02:53:43;;;;;;;;;;;;;;;;;;4953840;28;19925;-85
2021/08/31 02:56:11;;;;;;;;;;;;;;;;;;4966554;28;20321;-89
2021/08/31 02:58:39;;;;;;;;;;;;;;;;;;4988282;28;19949;-89
2021/08/31 03:01:28;;;;;;;;;;;;;;;;;;4942484;28;20006;-88
2021/08/31 03:03:56;;;;;;;;;;;;;;;;;;4955457;28;19926;-88
2021/08/31 03:06:24;;;;;;;;;;;;;;;;;;4969216;28;19934;-89
2021/08/31 03:08:53;;;;;;;;;;;;;;;;;;4958164;28;19925;-91
2021/08/31 03:11:21;;;;;;;;;;;;;;;;;;4954872;28;19926;-89
2021/08/31 03:13:50;;;;;;;;;;;;;;;;;;4958399;28;19926;-89
2021/08/31 03:16:18;;;;;;;;;;;;;;;;;;4969338;28;19941;-88
2021/08/31 03:18:46;;;;;;;;;;;;;;;;;;4958468;28;19948;-89
2021/08/31 03:21:14;;;;;;;;;;;;;;;;;;4959445;28;19926;-88
2021/08/31 03:23:42;;;;;;;;;;;;;;;;;;4992539;28;19925;-88
2021/08/31 03:26:12;;;;;;;;;;;;;;;;;;4955573;28;19926;-90
2021/08/31 03:28:40;;;;;;;;;;;;;;;;;;4948143;28;20317;-88
2021/08/31 03:31:08;;;;;;;;;;;;;;;;;;4966217;28;19933;-87
2021/08/31 03:33:36;;;;;;;;;;;;;;;;;;4956489;28;19926;-90
2021/08/31 03:36:06;;;;;;;;;;;;;;;;;;4969737;28;19930;-90
2021/08/31 03:38:34;;;;;;;;;;;;;;;;;;4971533;28;19930;-89
2021/08/31 03:41:03;;;;;;;;;;;;;;;;;;4957258;28;19925;-88
2021/08/31 03:43:33;;;;;;;;;;;;;;;;;;4952778;28;19934;-88
2021/08/31 03:46:01;;;;;;;;;;;;;;;;;;4951970;28;19933;-88
2021/08/31 03:48:29;;;;;;;;;;;;;;;;;;4960305;28;19926;-90
2021/08/31 03:50:57;;;;;;;;;;;;;;;;;;4954426;28;19933;-89
2021/08/31 03:53:26;;;;;;;;;;;;;;;;;;4983959;28;19933;-90
2021/08/31 03:55:54;;;;;;;;;;;;;;;;;;4951550;28;19930;-89
2021/08/31 03:58:22;;;;;;;;;;;;;;;;;;4957137;28;19926;-90
2021/08/31 04:00:52;;;;;;;;;;;;;;;;;;4966833;28;19933;-90
2021/08/31 04:03:20;;;;;;;;;;;;;;;;;;4948033;28;19925;-88
2021/08/31 04:05:48;;;;;;;;;;;;;;;;;;4951021;28;19933;-89
2021/08/31 04:08:16;;;;;;;;;;;;;;;;;;4954422;28;19930;-88
2021/08/31 04:10:44;;;;;;;;;;;;;;;;;;4958200;28;19937;-88
2021/08/31 04:13:17;;;;;;;;;;;;;;;;;;4956573;28;19926;-88
2021/08/31 04:15:46;;;;;;;;;;;;;;;;;;4967268;28;20429;-87
2021/08/31 04:18:15;;;;;;;;;;;;;;;;;;4953837;28;19930;-89
2021/08/31 04:20:43;;;;;;;;;;;;;;;;;;4966824;28;19933;-88
2021/08/31 04:23:11;;;;;;;;;;;;;;;;;;4954083;28;19926;-89
2021/08/31 04:25:40;;;;;;;;;;;;;;;;;;4956372;28;19934;-86
2021/08/31 04:28:08;;;;;;;;;;;;;;;;;;4946517;28;19926;-89
2021/08/31 04:30:36;;;;;;;;;;;;;;;;;;4953132;28;19932;-90
2021/08/31 04:33:04;;;;;;;;;;;;;;;;;;4948912;28;19926;-89
2021/08/31 04:35:34;;;;;;;;;;;;;;;;;;4969125;28;19947;-89
2021/08/31 04:38:02;;;;;;;;;;;;;;;;;;4952025;28;20310;-87
2021/08/31 04:40:30;;;;;;;;;;;;;;;;;;4966187;28;19926;-87
2021/08/31 04:42:58;;;;;;;;;;;;;;;;;;4949064;28;19926;-88
2021/08/31 04:45:26;;;;;;;;;;;;;;;;;;4970825;28;20904;-88
2021/08/31 04:47:54;;;;;;;;;;;;;;;;;;4954348;28;21031;-87
2021/08/31 04:50:22;;;;;;;;;;;;;;;;;;4956733;28;19926;-90
2021/08/31 04:52:52;;;;;;;;;;;;;;;;;;4974496;28;19997;-89
2021/08/31 04:55:20;;;;;;;;;;;;;;;;;;4957968;28;19933;-89
2021/08/31 04:57:49;;;;;;;;;;;;;;;;;;4954946;28;19948;-90
2021/08/31 05:00:18;;;;;;;;;;;;;;;;;;4954000;28;20333;-88
2021/08/31 05:02:46;;;;;;;;;;;;;;;;;;4948840;28;19941;-89
2021/08/31 05:05:14;;;;;;;;;;;;;;;;;;4956221;28;19945;-88
2021/08/31 05:07:42;;;;;;;;;;;;;;;;;;4954136;28;19932;-89
2021/08/31 05:10:12;;;;;;;;;;;;;;;;;;4964298;28;19929;-89
2021/08/31 05:12:40;;;;;;;;;;;;;;;;;;4965002;28;19926;-93
2021/08/31 05:15:09;;;;;;;;;;;;;;;;;;4952483;28;19926;-88
2021/08/31 05:17:37;;;;;;;;;;;;;;;;;;4950919;28;19941;-88
2021/08/31 05:20:05;;;;;;;;;;;;;;;;;;4946279;28;19934;-89
2021/08/31 05:22:34;;;;;;;;;;;;;;;;;;4962031;28;20402;-88
2021/08/31 05:25:02;;;;;;;;;;;;;;;;;;4949507;28;19926;-88
2021/08/31 05:27:33;;;;;;;;;;;;;;;;;;4956107;28;19994;-88
2021/08/31 05:30:02;;;;;;;;;;;;;;;;;;4954063;28;20349;-90
2021/08/31 05:32:30;;;;;;;;;;;;;;;;;;4955787;28;19926;-90
2021/08/31 05:34:58;;;;;;;;;;;;;;;;;;4962103;28;19948;-90
2021/08/31 05:37:26;;;;;;;;;;;;;;;;;;4967130;28;19930;-91
2021/08/31 05:39:54;;;;;;;;;;;;;;;;;;4964356;28;21563;-89
2021/08/31 05:42:22;;;;;;;;;;;;;;;;;;4961050;28;19926;-93
2021/08/31 05:44:52;;;;;;;;;;;;;;;;;;4958128;28;19926;-89
2021/08/31 05:47:20;;;;;;;;;;;;;;;;;;4956441;28;19925;-91
2021/08/31 05:49:48;;;;;;;;;;;;;;;;;;4966912;28;19926;-92
2021/08/31 05:52:18;;;;;;;;;;;;;;;;;;4967144;28;19930;-91
2021/08/31 05:54:46;;;;;;;;;;;;;;;;;;4969630;28;20313;-90
2021/08/31 05:57:16;;;;;;;;;;;;;;;;;;4964067;28;19926;-94
2021/08/31 05:59:44;;;;;;;;;;;;;;;;;;4953363;28;19925;-91
2021/08/31 06:02:14;;;;;;;;;;;;;;;;;;4957745;28;19926;-92
2021/08/31 06:04:42;;;;;;;;;;;;;;;;;;4957935;28;19925;-92
2021/08/31 06:07:11;;;;;;;;;;;;;;;;;;4949201;28;19926;-92
2021/08/31 06:09:41;;;;;;;;;;;;;;;;;;4956514;28;19934;-93
2021/08/31 06:12:09;;;;;;;;;;;;;;;;;;4951693;28;19925;-93
2021/08/31 06:14:38;;;;;;;;;;;;;;;;;;4948791;28;20325;-89
2021/08/31 06:17:07;;;;;;;;;;;;;;;;;;4949425;28;19932;-91
2021/08/31 06:19:37;;;;;;;;;;;;;;;;;;4963078;28;19933;-91
2021/08/31 06:22:08;;;;;;;;;;;;;;;;;;4966387;28;19926;-90
2021/08/31 06:24:37;;;;;;;;;;;;;;;;;;4954363;28;19930;-89
2021/08/31 06:27:05;;;;;;;;;;;;;;;;;;4946290;28;19925;-91
2021/08/31 06:29:34;;;;;;;;;;;;;;;;;;4950108;28;19926;-90
2021/08/31 06:32:02;;;;;;;;;;;;;;;;;;4945291;28;19925;-91
2021/08/31 06:34:34;;;;;;;;;;;;;;;;;;4961821;28;19933;-91
2021/08/31 06:37:04;;;;;;;;;;;;;;;;;;4953832;28;20861;-90
2021/08/31 06:39:32;;;;;;;;;;;;;;;;;;4957711;28;19949;-91
2021/08/31 06:42:04;;;;;;;;;;;;;;;;;;4951174;28;20394;-88
2021/08/31 06:44:33;;;;;;;;;;;;;;;;;;4953531;28;19925;-89
2021/08/31 06:47:01;;;;;;;;;;;;;;;;;;4948164;28;19927;-90
2021/08/31 06:49:29;;;;;;;;;;;;;;;;;;4947486;28;19932;-89
2021/08/31 06:51:57;;;;;;;;;;;;;;;;;;4949973;28;20885;-91
2021/08/31 06:54:27;;;;;;;;;;;;;;;;;;4953050;28;19926;-89
2021/08/31 06:56:55;;;;;;;;;;;;;;;;;;4953702;28;21639;-90
2021/08/31 06:59:23;;;;;;;;;;;;;;;;;;4952267;28;19933;-89
2021/08/31 07:01:58;;;;;;;;;;;;;;;;;;4961173;28;19925;-90
2021/08/31 07:04:26;;;;;;;;;;;;;;;;;;4948903;28;19941;-88
2021/08/31 07:06:55;;;;;;;;;;;;;;;;;;4964527;28;19926;-89
2021/08/31 07:09:23;;;;;;;;;;;;;;;;;;4951021;28;19933;-88
2021/08/31 07:11:54;;;;;;;;;;;;;;;;;;4944192;28;19926;-90
2021/08/31 07:14:23;;;;;;;;;;;;;;;;;;4958241;28;19937;-91
2021/08/31 07:16:51;;;;;;;;;;;;;;;;;;4953253;28;19937;-88
2021/08/31 07:19:19;;;;;;;;;;;;;;;;;;4949882;28;20577;-90
2021/08/31 07:21:47;;;;;;;;;;;;;;;;;;4948992;28;21255;-90
2021/08/31 07:24:15;;;;;;;;;;;;;;;;;;4953750;28;19925;-90
2021/08/31 07:26:43;;;;;;;;;;;;;;;;;;4972579;28;19926;-89
2021/08/31 07:29:13;;;;;;;;;;;;;;;;;;4955349;28;19926;-89
2021/08/31 07:31:41;;;;;;;;;;;;;;;;;;4970135;28;19933;-89
2021/08/31 07:34:18;;;;;;;;;;;;;;;;;;4953195;28;19933;-89
2021/08/31 07:36:48;;;;;;;;;;;;;;;;;;4966143;28;19926;-89
2021/08/31 07:39:16;;;;;;;;;;;;;;;;;;4972364;28;19925;-89
2021/08/31 07:41:50;;;;;;;;;;;;;;;;;;4956083;28;19930;-88
2021/08/31 07:44:20;;;;;;;;;;;;;;;;;;4946758;28;19930;-89
2021/08/31 07:46:50;;;;;;;;;;;;;;;;;;4951672;28;19930;-88
2021/08/31 07:49:19;;;;;;;;;;;;;;;;;;4949497;28;19941;-88
2021/08/31 07:51:47;;;;;;;;;;;;;;;;;;4961609;28;19934;-89
2021/08/31 07:54:16;;;;;;;;;;;;;;;;;;4955197;28;19926;-89
2021/08/31 07:56:44;;;;;;;;;;;;;;;;;;4951374;28;19930;-89
2021/08/31 07:59:12;;;;;;;;;;;;;;;;;;4950761;28;19949;-90
2021/08/31 08:01:41;;;;;;;;;;;;;;;;;;4961934;28;19940;-88
2021/08/31 08:04:10;;;;;;;;;;;;;;;;;;4957912;28;19933;-87
2021/08/31 08:06:39;;;;;;;;;;;;;;;;;;4951323;28;19930;-89
2021/08/31 08:09:10;;;;;;;;;;;;;;;;;;4968730;28;19953;-88
2021/08/31 08:11:38;;;;;;;;;;;;;;;;;;4947388;28;19930;-90
2021/08/31 08:14:07;;;;;;;;;;;;;;;;;;4951685;28;19926;-89
2021/08/31 08:16:35;;;;;;;;;;;;;;;;;;4988026;28;19925;-89
2021/08/31 08:19:04;;;;;;;;;;;;;;;;;;4954399;28;19940;-89
2021/08/31 08:21:32;;;;;;;;;;;;;;;;;;4967872;28;19926;-89
2021/08/31 08:24:01;;;;;;;;;;;;;;;;;;4947385;28;19926;-89
2021/08/31 08:26:29;;;;;;;;;;;;;;;;;;4949085;28;19930;-89
2021/08/31 08:28:57;;;;;;;;;;;;;;;;;;4950156;28;19927;-89
2021/08/31 08:31:25;;;;;;;;;;;;;;;;;;4952486;28;19926;-88
2021/08/31 08:33:53;;;;;;;;;;;;;;;;;;4953389;28;19934;-89
2021/08/31 08:36:23;;;;;;;;;;;;;;;;;;4949785;28;19926;-89
2021/08/31 08:38:51;;;;;;;;;;;;;;;;;;4953394;28;19926;-88
2021/08/31 08:41:19;;;;;;;;;;;;;;;;;;4957278;28;19941;-87
2021/08/31 08:43:47;;;;;;;;;;;;;;;;;;4956844;28;19926;-90
2021/08/31 08:46:15;;;;;;;;;;;;;;;;;;4970030;28;19937;-88
2021/08/31 08:48:45;;;;;;;;;;;;;;;;;;4954472;28;19926;-87
2021/08/31 08:51:13;;;;;;;;;;;;;;;;;;4951892;28;19933;-86
2021/08/31 08:53:43;;;;;;;;;;;;;;;;;;4968025;28;19926;-89
2021/08/31 08:56:11;;;;;;;;;;;;;;;;;;4965765;28;19926;-88
2021/08/31 08:58:39;;;;;;;;;;;;;;;;;;4967214;28;19940;-87
2021/08/31 09:01:22;;;;;;;;;;;;;;;;;;4954194;28;19925;-87
2021/08/31 09:03:54;;;;;;;;;;;;;;;;;;4954430;28;20403;-87
2021/08/31 09:06:22;;;;;;;;;;;;;;;;;;4974245;28;19926;-89
2021/08/31 09:08:59;;;;;;;;;;;;;;;;;;4964809;28;19927;-88
2021/08/31 09:11:29;;;;;;;;;;;;;;;;;;4964467;28;19941;-87
2021/08/31 09:14:17;;;;;;;;;;;;;;;;;;4956760;28;19926;-88
2021/08/31 09:16:46;;;;;;;;;;;;;;;;;;4962040;28;19926;-87
2021/08/31 09:19:14;;;;;;;;;;;;;;;;;;4955936;28;20591;-87
2021/08/31 09:21:45;;;;;;;;;;;;;;;;;;4958632;28;20309;-88
2021/08/31 09:24:14;;;;;;;;;;;;;;;;;;4943724;28;19926;-89
2021/08/31 09:26:43;;;;;;;;;;;;;;;;;;4952409;28;19926;-88
2021/08/31 09:29:13;;;;;;;;;;;;;;;;;;4976971;28;19949;-89
2021/08/31 09:31:50;;;;;;;;;;;;;;;;;;4931791;28;23217;-88
2021/08/31 09:34:35;;;;;;;;;;;;;;;;;;4946255;28;19933;-88
2021/08/31 09:37:18;;;;;;;;;;;;;;;;;;4962916;28;19933;-88
2021/08/31 09:39:48;;;;;;;;;;;;;;;;;;4950788;28;19926;-87
2021/08/31 09:42:16;;;;;;;;;;;;;;;;;;4967657;28;19934;-88
2021/08/31 09:44:51;;;;;;;;;;;;;;;;;;4944954;28;20413;-87
2021/08/31 09:47:20;;;;;;;;;;;;;;;;;;4964329;28;19953;-88
2021/08/31 09:49:48;;;;;;;;;;;;;;;;;;4951289;28;20334;-89
2021/08/31 09:52:16;;;;;;;;;;;;;;;;;;4949574;28;19926;-89
2021/08/31 09:54:45;;;;;;;;;;;;;;;;;;4951321;28;20417;-88
2021/08/31 09:57:30;;;;;;;;;;;;;;;;;;4960044;28;19933;-88
2021/08/31 10:00:00;;;;;;;;;;;;;;;;;;4955354;28;19926;-89
2021/08/31 10:02:28;;;;;;;;;;;;;;;;;;4965238;28;19938;-88
2021/08/31 10:04:57;;;;;;;;;;;;;;;;;;4948095;28;20310;-87
2021/08/31 10:07:27;;;;;;;;;;;;;;;;;;4970664;28;19926;-89
2021/08/31 10:09:55;;;;;;;;;;;;;;;;;;4945959;28;19926;-90
2021/08/31 10:12:23;;;;;;;;;;;;;;;;;;4950649;28;19933;-88
2021/08/31 10:14:54;;;;;;;;;;;;;;;;;;4952801;28;20413;-89
2021/08/31 10:17:23;;;;;;;;;;;;;;;;;;4949218;28;19933;-88
2021/08/31 10:19:53;;;;;;;;;;;;;;;;;;4948004;28;19930;-89
2021/08/31 10:22:21;;;;;;;;;;;;;;;;;;4948554;28;20401;-87
2021/08/31 10:24:49;;;;;;;;;;;;;;;;;;4962978;28;22644;-89
2021/08/31 10:27:36;;;;;;;;;;;;;;;;;;4981481;28;20386;-88
2021/08/31 10:30:29;;;;;;;;;;;;;;;;;;4953694;28;19926;-89
2021/08/31 10:32:58;;;;;;;;;;;;;;;;;;4951078;28;19932;-89
2021/08/31 10:35:46;;;;;;;;;;;;;;;;;;4953755;28;19937;-89
2021/08/31 10:38:14;;;;;;;;;;;;;;;;;;4950154;28;19934;-89
2021/08/31 10:40:43;;;;;;;;;;;;;;;;;;4967128;28;19926;-89
2021/08/31 10:43:11;;;;;;;;;;;;;;;;;;4950281;28;19937;-88
2021/08/31 10:45:41;;;;;;;;;;;;;;;;;;4951214;28;19926;-87
2021/08/31 10:48:24;;;;;;;;;;;;;;;;;;4946779;28;19933;-87
2021/08/31 10:50:53;;;;;;;;;;;;;;;;;;4952214;28;19933;-87
2021/08/31 10:53:37;;;;;;;;;;;;;;;;;;4958645;28;19929;-87
2021/08/31 10:56:25;;;;;;;;;;;;;;;;;;4951317;28;19926;-87
2021/08/31 10:58:53;;;;;;;;;;;;;;;;;;4963493;28;20438;-86
2021/08/31 11:01:23;;;;;;;;;;;;;;;;;;4948590;28;19930;-87
2021/08/31 11:03:53;;;;;;;;;;;;;;;;;;4951442;28;19941;-87
2021/08/31 11:06:26;;;;;;;;;;;;;;;;;;4946255;28;20184;-86
2021/08/31 11:09:19;;;;;;;;;;;;;;;;;;4948448;28;19926;-87
2021/08/31 11:11:51;;;;;;;;;;;;;;;;;;4942127;28;19926;-87
2021/08/31 11:14:19;;;;;;;;;;;;;;;;;;4948052;28;19926;-87
2021/08/31 11:16:51;;;;;;;;;;;;;;;;;;4959958;28;19930;-86
2021/08/31 11:19:27;;;;;;;;;;;;;;;;;;4967575;28;20318;-87
2021/08/31 11:21:56;;;;;;;;;;;;;;;;;;4951217;28;20043;-89
2021/08/31 11:24:25;;;;;;;;;;;;;;;;;;4964075;28;19934;-89
2021/08/31 11:26:57;;;;;;;;;;;;;;;;;;4946896;28;19950;-87
2021/08/31 11:29:25;;;;;;;;;;;;;;;;;;4950026;28;20326;-88
2021/08/31 11:32:04;;;;;;;;;;;;;;;;;;4950125;28;19930;-86
2021/08/31 11:34:33;;;;;;;;;;;;;;;;;;4966073;28;19926;-88
2021/08/31 11:37:04;;;;;;;;;;;;;;;;;;4986975;28;19930;-87
2021/08/31 11:39:32;;;;;;;;;;;;;;;;;;4986362;28;19937;-88
2021/08/31 11:42:13;;;;;;;;;;;;;;;;;;4954726;28;19930;-86
2021/08/31 11:44:55;;;;;;;;;;;;;;;;;;4965532;28;19933;-87
2021/08/31 11:47:27;;;;;;;;;;;;;;;;;;4970037;28;19934;-87
2021/08/31 11:49:59;;;;;;;;;;;;;;;;;;4968846;28;19930;-87
2021/08/31 11:52:41;;;;;;;;;;;;;;;;;;4954076;28;19933;-87
2021/08/31 11:55:22;;;;;;;;;;;;;;;;;;4951713;28;19930;-87
2021/08/31 11:58:04;;;;;;;;;;;;;;;;;;4970469;28;19937;-87
2021/08/31 12:00:40;;;;;;;;;;;;;;;;;;4952612;28;19933;-87
2021/08/31 12:03:23;;;;;;;;;;;;;;;;;;4968354;28;19926;-88
2021/08/31 12:05:56;;;;;;;;;;;;;;;;;;4947943;28;20425;-87
2021/08/31 12:08:26;;;;;;;;;;;;;;;;;;4952077;28;19925;-87
2021/08/31 12:10:55;;;;;;;;;;;;;;;;;;4957836;28;19929;-87
2021/08/31 12:13:24;;;;;;;;;;;;;;;;;;4974130;28;19926;-87
2021/08/31 12:15:54;;;;;;;;;;;;;;;;;;4960344;28;19957;-88
2021/08/31 12:18:25;;;;;;;;;;;;;;;;;;4973299;28;19926;-87
2021/08/31 12:20:56;;;;;;;;;;;;;;;;;;4954633;28;19930;-88
2021/08/31 12:23:31;;;;;;;;;;;;;;;;;;4957213;28;19926;-87
2021/08/31 12:26:00;;;;;;;;;;;;;;;;;;4952188;28;19933;-88
2021/08/31 12:28:29;;;;;;;;;;;;;;;;;;4944608;28;19941;-87
2021/08/31 12:34:29;;;;;;;;;;;;;;;;;;4974474;28;19942;-86
2021/08/31 12:37:02;;;;;;;;;;;;;;;;;;4956012;28;19930;-86
2021/08/31 12:40:17;;;;;;;;;;;;;;;;;;4930020;29;19931;-88
2021/08/31 12:42:46;;;;;;;;;;;;;;;;;;4953446;28;19925;-86
2021/08/31 12:45:15;;;;;;;;;;;;;;;;;;4953946;28;19999;-86
2021/08/31 12:47:51;;;;;;;;;;;;;;;;;;4965382;28;19925;-85
2021/08/31 12:50:21;;;;;;;;;;;;;;;;;;4959868;28;19932;-86
2021/08/31 12:53:04;;;;;;;;;;;;;;;;;;4961512;28;19937;-86
2021/08/31 12:55:41;;;;;;;;;;;;;;;;;;4966021;28;19930;-87
2021/08/31 12:58:27;;;;;;;;;;;;;;;;;;4968760;28;19913;-86
2021/08/31 13:01:17;;;;;;;;;;;;;;;;;;4982957;28;19926;-86
2021/08/31 13:04:12;;;;;;;;;;;;;;;;;;4995229;28;19934;-88
2021/08/31 13:06:43;;;;;;;;;;;;;;;;;;4979454;28;19933;-88
2021/08/31 13:09:12;;;;;;;;;;;;;;;;;;4976056;28;19948;-87
2021/08/31 13:11:41;;;;;;;;;;;;;;;;;;4979577;28;19936;-87
2021/08/31 13:14:09;;;;;;;;;;;;;;;;;;4972662;28;19926;-87
2021/08/31 13:16:38;;;;;;;;;;;;;;;;;;4982263;28;19936;-87
2021/08/31 13:19:06;;;;;;;;;;;;;;;;;;4993695;28;19926;-86
2021/08/31 13:21:35;;;;;;;;;;;;;;;;;;4965945;28;19914;-85
2021/08/31 13:24:05;;;;;;;;;;;;;;;;;;4971790;28;19922;-86
2021/08/31 13:26:34;;;;;;;;;;;;;;;;;;4983868;28;19934;-86
2021/08/31 13:29:04;;;;;;;;;;;;;;;;;;4968314;28;20159;-87
2021/08/31 13:31:33;;;;;;;;;;;;;;;;;;4959160;28;19934;-86
2021/08/31 13:34:12;;;;;;;;;;;;;;;;;;4966165;28;20409;-86
2021/08/31 13:37:03;;;;;;;;;;;;;;;;;;4970829;28;19937;-86
2021/08/31 13:39:34;;;;;;;;;;;;;;;;;;4973727;28;19930;-86
2021/08/31 13:42:02;;;;;;;;;;;;;;;;;;4957771;28;19926;-86
2021/08/31 13:44:30;;;;;;;;;;;;;;;;;;4949943;28;19960;-86
2021/08/31 13:46:59;;;;;;;;;;;;;;;;;;4966455;28;20413;-87
2021/08/31 13:49:31;;;;;;;;;;;;;;;;;;4959064;28;19934;-87
2021/08/31 13:52:16;;;;;;;;;;;;;;;;;;4968567;28;19926;-87
2021/08/31 13:54:45;;;;;;;;;;;;;;;;;;4982501;28;19926;-87
2021/08/31 13:57:13;;;;;;;;;;;;;;;;;;4955715;28;19930;-87
2021/08/31 13:59:42;;;;;;;;;;;;;;;;;;4954916;28;19932;-86
2021/08/31 14:02:10;;;;;;;;;;;;;;;;;;4960325;28;19927;-86
2021/08/31 14:07:50;;;;;;;;;;;;;;;;;;4957957;28;19933;-86
2021/08/31 14:10:21;;;;;;;;;;;;;;;;;;4975170;28;19929;-85
2021/08/31 14:12:50;;;;;;;;;;;;;;;;;;4972248;28;19926;-86
2021/08/31 14:15:32;;;;;;;;;;;;;;;;;;4987428;28;19926;-86
2021/08/31 14:18:10;;;;;;;;;;;;;;;;;;4956481;28;19930;-87
2021/08/31 14:20:38;;;;;;;;;;;;;;;;;;4946187;28;19937;-85
2021/08/31 14:23:13;;;;;;;;;;;;;;;;;;4957390;28;19925;-87
2021/08/31 14:28:58;;;;;;;;;;;;;;;;;;4968260;28;19930;-87
2021/08/31 14:31:26;;;;;;;;;;;;;;;;;;4968396;28;19926;-87
2021/08/31 14:33:54;;;;;;;;;;;;;;;;;;4949938;28;20345;-85
2021/08/31 14:36:22;;;;;;;;;;;;;;;;;;4949542;28;19925;-86
2021/08/31 14:39:06;;;;;;;;;;;;;;;;;;4951381;28;19925;-87
2021/08/31 14:41:38;;;;;;;;;;;;;;;;;;4956013;28;19937;-87
2021/08/31 14:44:07;;;;;;;;;;;;;;;;;;4943224;28;19926;-86
2021/08/31 14:46:35;;;;;;;;;;;;;;;;;;4964227;28;20278;-88
2021/08/31 14:49:04;;;;;;;;;;;;;;;;;;4964616;28;19934;-87
2021/08/31 14:51:32;;;;;;;;;;;;;;;;;;4948562;28;19933;-88
2021/08/31 14:54:00;;;;;;;;;;;;;;;;;;4978615;28;19926;-88
2021/08/31 14:56:28;;;;;;;;;;;;;;;;;;4948176;28;19937;-88
2021/08/31 14:58:58;;;;;;;;;;;;;;;;;;4949300;28;19926;-87
2021/08/31 15:01:26;;;;;;;;;;;;;;;;;;4947980;28;19926;-87
2021/08/31 15:03:54;;;;;;;;;;;;;;;;;;4962410;28;19930;-88
2021/08/31 15:06:23;;;;;;;;;;;;;;;;;;4968225;28;19926;-87
2021/08/31 15:08:51;;;;;;;;;;;;;;;;;;4949683;28;19926;-87
2021/08/31 15:11:19;;;;;;;;;;;;;;;;;;4947434;28;19926;-86
2021/08/31 15:13:47;;;;;;;;;;;;;;;;;;4963835;28;19925;-85
2021/08/31 15:16:17;;;;;;;;;;;;;;;;;;4945578;28;20342;-87
2021/08/31 15:18:45;;;;;;;;;;;;;;;;;;4959994;28;19926;-87
2021/08/31 15:21:13;;;;;;;;;;;;;;;;;;4974048;28;19929;-86
2021/08/31 15:23:42;;;;;;;;;;;;;;;;;;4967570;28;20401;-86
2021/08/31 15:26:10;;;;;;;;;;;;;;;;;;4968062;28;20444;-85
2021/08/31 15:28:38;;;;;;;;;;;;;;;;;;4953743;28;19932;-86
2021/08/31 15:31:06;;;;;;;;;;;;;;;;;;4950200;28;20386;-85
2021/08/31 15:33:36;;;;;;;;;;;;;;;;;;4954148;28;19937;-86
2021/08/31 15:36:04;;;;;;;;;;;;;;;;;;4955551;28;20301;-86
2021/08/31 15:38:34;;;;;;;;;;;;;;;;;;4969328;28;19926;-86
2021/08/31 15:41:02;;;;;;;;;;;;;;;;;;4969084;28;19929;-86
2021/08/31 15:43:30;;;;;;;;;;;;;;;;;;4946594;28;19937;-86
2021/08/31 15:45:58;;;;;;;;;;;;;;;;;;4948563;28;19949;-86
2021/08/31 15:48:27;;;;;;;;;;;;;;;;;;4964829;28;19930;-87
2021/08/31 15:50:56;;;;;;;;;;;;;;;;;;4956545;28;19940;-87
2021/08/31 15:53:24;;;;;;;;;;;;;;;;;;4964647;28;19926;-88
2021/08/31 15:55:52;;;;;;;;;;;;;;;;;;4947078;28;19937;-88
2021/08/31 15:58:20;;;;;;;;;;;;;;;;;;4961638;28;19942;-88
2021/08/31 16:00:49;;;;;;;;;;;;;;;;;;4949535;28;19930;-88
2021/08/31 16:03:17;;;;;;;;;;;;;;;;;;4951890;28;19930;-88
2021/08/31 16:05:45;;;;;;;;;;;;;;;;;;4945812;28;19930;-86
2021/08/31 16:08:15;;;;;;;;;;;;;;;;;;4950597;28;19930;-88
2021/08/31 16:10:43;;;;;;;;;;;;;;;;;;4961473;28;19926;-88
2021/08/31 16:13:11;;;;;;;;;;;;;;;;;;4949575;28;19926;-88
2021/08/31 16:15:40;;;;;;;;;;;;;;;;;;4951062;28;20377;-88
2021/08/31 16:18:13;;;;;;;;;;;;;;;;;;4950727;28;19926;-88
2021/08/31 16:20:42;;;;;;;;;;;;;;;;;;4949668;28;20394;-89
2021/08/31 16:23:10;;;;;;;;;;;;;;;;;;4954458;28;19936;-89
2021/08/31 16:25:40;;;;;;;;;;;;;;;;;;4952629;28;19934;-88
2021/08/31 16:28:10;;;;;;;;;;;;;;;;;;4967628;28;19926;-88
2021/08/31 16:30:38;;;;;;;;;;;;;;;;;;4966702;28;19998;-88
2021/08/31 16:33:06;;;;;;;;;;;;;;;;;;4951282;28;19930;-88
2021/08/31 16:35:36;;;;;;;;;;;;;;;;;;4965286;28;19930;-88
2021/08/31 16:38:05;;;;;;;;;;;;;;;;;;4949386;28;19940;-88
2021/08/31 16:40:33;;;;;;;;;;;;;;;;;;4964052;28;20303;-88
2021/08/31 16:43:03;;;;;;;;;;;;;;;;;;4952889;28;20170;-87
2021/08/31 16:45:32;;;;;;;;;;;;;;;;;;4959730;28;19926;-88
2021/08/31 16:48:00;;;;;;;;;;;;;;;;;;4953614;28;20310;-89
2021/08/31 16:50:28;;;;;;;;;;;;;;;;;;4961308;28;19941;-87
2021/08/31 16:52:57;;;;;;;;;;;;;;;;;;4976495;28;19930;-87
2021/08/31 16:55:25;;;;;;;;;;;;;;;;;;4946650;28;19926;-88
2021/08/31 16:57:53;;;;;;;;;;;;;;;;;;4960829;28;20318;-88
2021/08/31 17:00:23;;;;;;;;;;;;;;;;;;4961785;28;19933;-89
2021/08/31 17:02:52;;;;;;;;;;;;;;;;;;4968978;28;19926;-89
2021/08/31 17:05:20;;;;;;;;;;;;;;;;;;4962026;28;19994;-88
2021/08/31 17:07:56;;;;;;;;;;;;;;;;;;4940941;28;19926;-89
2021/08/31 17:10:35;;;;;;;;;;;;;;;;;;4963515;28;19933;-88
2021/08/31 17:13:11;;;;;;;;;;;;;;;;;;4961793;28;19933;-89
2021/08/31 17:15:41;;;;;;;;;;;;;;;;;;4946671;28;19934;-87